sensor_id;sensor_type;location;lat;lon;timestamp;P1;durP1;ratioP1;P2;durP2;ratioP2
14704;SDS011;7442;50.840;3.396;2023-10-13T00:02:24;2.47;;;1.40;;
14704;SDS011;7442;50.840;3.396;2023-10-13T00:04:54;1.40;;;1.30;;
14704;SDS011;7442;50.840;3.396;2023-10-13T00:07:25;1.62;;;1.40;;
14704;SDS011;7442;50.840;3.396;2023-10-13T00:09:56;3.20;;;1.27;;
14704;SDS011;7442;50.840;3.396;2023-10-13T00:12:27;1.90;;;1.30;;
14704;SDS011;7442;50.840;3.396;2023-10-13T00:14:59;1.35;;;1.25;;
14704;SDS011;7442;50.840;3.396;2023-10-13T00:17:30;2.87;;;1.50;;
14704;SDS011;7442;50.840;3.396;2023-10-13T00:20:01;2.72;;;1.52;;
14704;SDS011;7442;50.840;3.396;2023-10-13T00:22:32;1.52;;;1.32;;
14704;SDS011;7442;50.840;3.396;2023-10-13T00:25:04;1.27;;;1.15;;
14704;SDS011;7442;50.840;3.396;2023-10-13T00:27:36;2.42;;;1.12;;
14704;SDS011;7442;50.840;3.396;2023-10-13T00:30:08;1.90;;;1.20;;
14704;SDS011;7442;50.840;3.396;2023-10-13T00:32:51;1.60;;;1.30;;
14704;SDS011;7442;50.840;3.396;2023-10-13T00:35:28;1.65;;;1.20;;
14704;SDS011;7442;50.840;3.396;2023-10-13T00:38:05;1.57;;;1.20;;
14704;SDS011;7442;50.840;3.396;2023-10-13T00:40:37;1.98;;;1.30;;
14704;SDS011;7442;50.840;3.396;2023-10-13T00:43:09;1.62;;;1.15;;
14704;SDS011;7442;50.840;3.396;2023-10-13T00:45:51;3.10;;;1.47;;
14704;SDS011;7442;50.840;3.396;2023-10-13T00:48:40;1.50;;;1.00;;
14704;SDS011;7442;50.840;3.396;2023-10-13T00:51:13;2.08;;;1.42;;
14704;SDS011;7442;50.840;3.396;2023-10-13T00:54:02;1.07;;;0.93;;
14704;SDS011;7442;50.840;3.396;2023-10-13T00:56:39;1.60;;;1.00;;
14704;SDS011;7442;50.840;3.396;2023-10-13T00:59:12;2.00;;;1.40;;
14704;SDS011;7442;50.840;3.396;2023-10-13T01:01:43;4.12;;;1.50;;
14704;SDS011;7442;50.840;3.396;2023-10-13T01:04:13;1.70;;;1.20;;
14704;SDS011;7442;50.840;3.396;2023-10-13T01:06:43;1.20;;;1.05;;
14704;SDS011;7442;50.840;3.396;2023-10-13T01:09:14;1.65;;;1.22;;
14704;SDS011;7442;50.840;3.396;2023-10-13T01:11:48;2.33;;;1.35;;
14704;SDS011;7442;50.840;3.396;2023-10-13T01:14:23;1.32;;;1.05;;
14704;SDS011;7442;50.840;3.396;2023-10-13T01:16:55;1.00;;;1.00;;
14704;SDS011;7442;50.840;3.396;2023-10-13T01:19:26;2.52;;;1.32;;
14704;SDS011;7442;50.840;3.396;2023-10-13T01:21:57;1.72;;;1.10;;
14704;SDS011;7442;50.840;3.396;2023-10-13T01:24:34;2.27;;;1.12;;
14704;SDS011;7442;50.840;3.396;2023-10-13T01:27:06;1.65;;;1.17;;
14704;SDS011;7442;50.840;3.396;2023-10-13T01:29:38;1.40;;;1.17;;
14704;SDS011;7442;50.840;3.396;2023-10-13T01:32:08;1.20;;;1.10;;
14704;SDS011;7442;50.840;3.396;2023-10-13T01:34:40;1.50;;;1.15;;
14704;SDS011;7442;50.840;3.396;2023-10-13T01:37:11;2.52;;;1.25;;
14704;SDS011;7442;50.840;3.396;2023-10-13T01:39:43;1.10;;;1.00;;
14704;SDS011;7442;50.840;3.396;2023-10-13T01:42:15;2.00;;;1.37;;
14704;SDS011;7442;50.840;3.396;2023-10-13T01:44:49;1.40;;;1.00;;
14704;SDS011;7442;50.840;3.396;2023-10-13T01:47:20;2.05;;;1.27;;
14704;SDS011;7442;50.840;3.396;2023-10-13T01:49:51;1.70;;;1.30;;
14704;SDS011;7442;50.840;3.396;2023-10-13T01:52:21;1.62;;;1.30;;
14704;SDS011;7442;50.840;3.396;2023-10-13T01:54:52;1.62;;;1.07;;
14704;SDS011;7442;50.840;3.396;2023-10-13T01:57:22;1.42;;;1.12;;
14704;SDS011;7442;50.840;3.396;2023-10-13T01:59:52;1.60;;;1.17;;
14704;SDS011;7442;50.840;3.396;2023-10-13T02:02:27;1.70;;;1.20;;
14704;SDS011;7442;50.840;3.396;2023-10-13T02:04:59;2.52;;;1.50;;
14704;SDS011;7442;50.840;3.396;2023-10-13T02:07:30;1.60;;;1.40;;
14704;SDS011;7442;50.840;3.396;2023-10-13T02:10:02;2.17;;;1.32;;
14704;SDS011;7442;50.840;3.396;2023-10-13T02:12:35;1.90;;;1.27;;
14704;SDS011;7442;50.840;3.396;2023-10-13T02:15:06;1.67;;;1.25;;
14704;SDS011;7442;50.840;3.396;2023-10-13T02:17:40;1.47;;;1.37;;
14704;SDS011;7442;50.840;3.396;2023-10-13T02:20:10;1.82;;;1.40;;
14704;SDS011;7442;50.840;3.396;2023-10-13T02:22:42;1.30;;;1.20;;
14704;SDS011;7442;50.840;3.396;2023-10-13T02:25:18;2.35;;;1.47;;
14704;SDS011;7442;50.840;3.396;2023-10-13T02:28:05;1.40;;;1.30;;
14704;SDS011;7442;50.840;3.396;2023-10-13T02:30:38;1.72;;;1.35;;
14704;SDS011;7442;50.840;3.396;2023-10-13T02:33:16;2.52;;;1.57;;
14704;SDS011;7442;50.840;3.396;2023-10-13T02:35:48;2.00;;;1.40;;
14704;SDS011;7442;50.840;3.396;2023-10-13T02:38:22;2.10;;;1.42;;
14704;SDS011;7442;50.840;3.396;2023-10-13T02:40:56;1.40;;;1.27;;
14704;SDS011;7442;50.840;3.396;2023-10-13T02:43:28;1.75;;;1.50;;
14704;SDS011;7442;50.840;3.396;2023-10-13T02:45:59;2.35;;;1.30;;
14704;SDS011;7442;50.840;3.396;2023-10-13T02:48:30;1.20;;;1.10;;
14704;SDS011;7442;50.840;3.396;2023-10-13T02:51:08;2.85;;;1.25;;
14704;SDS011;7442;50.840;3.396;2023-10-13T02:53:45;2.27;;;1.50;;
14704;SDS011;7442;50.840;3.396;2023-10-13T02:56:17;2.20;;;1.45;;
14704;SDS011;7442;50.840;3.396;2023-10-13T02:58:51;1.32;;;1.22;;
14704;SDS011;7442;50.840;3.396;2023-10-13T03:01:23;1.70;;;1.15;;
14704;SDS011;7442;50.840;3.396;2023-10-13T03:03:55;1.40;;;1.30;;
14704;SDS011;7442;50.840;3.396;2023-10-13T03:06:27;1.35;;;1.25;;
14704;SDS011;7442;50.840;3.396;2023-10-13T03:09:11;2.10;;;1.40;;
14704;SDS011;7442;50.840;3.396;2023-10-13T03:11:50;2.12;;;1.37;;
14704;SDS011;7442;50.840;3.396;2023-10-13T03:14:20;4.55;;;1.42;;
14704;SDS011;7442;50.840;3.396;2023-10-13T03:16:57;3.02;;;1.52;;
14704;SDS011;7442;50.840;3.396;2023-10-13T03:19:33;3.17;;;1.47;;
14704;SDS011;7442;50.840;3.396;2023-10-13T03:22:07;3.70;;;1.60;;
14704;SDS011;7442;50.840;3.396;2023-10-13T03:24:39;2.92;;;1.25;;
14704;SDS011;7442;50.840;3.396;2023-10-13T03:27:16;1.77;;;1.45;;
14704;SDS011;7442;50.840;3.396;2023-10-13T03:29:55;1.60;;;1.50;;
14704;SDS011;7442;50.840;3.396;2023-10-13T03:32:27;1.70;;;1.40;;
14704;SDS011;7442;50.840;3.396;2023-10-13T03:34:58;1.65;;;1.30;;
14704;SDS011;7442;50.840;3.396;2023-10-13T03:37:30;3.77;;;1.32;;
14704;SDS011;7442;50.840;3.396;2023-10-13T03:45:42;1.15;;;1.05;;
14704;SDS011;7442;50.840;3.396;2023-10-13T03:48:16;1.55;;;1.37;;
14704;SDS011;7442;50.840;3.396;2023-10-13T03:50:58;1.60;;;1.50;;
14704;SDS011;7442;50.840;3.396;2023-10-13T03:53:34;2.22;;;1.12;;
14704;SDS011;7442;50.840;3.396;2023-10-13T03:56:26;1.45;;;1.20;;
14704;SDS011;7442;50.840;3.396;2023-10-13T03:58:55;1.50;;;1.30;;
14704;SDS011;7442;50.840;3.396;2023-10-13T04:01:31;1.30;;;1.20;;
14704;SDS011;7442;50.840;3.396;2023-10-13T04:04:15;2.77;;;1.55;;
14704;SDS011;7442;50.840;3.396;2023-10-13T04:07:04;2.58;;;1.65;;
14704;SDS011;7442;50.840;3.396;2023-10-13T04:09:39;2.45;;;1.40;;
14704;SDS011;7442;50.840;3.396;2023-10-13T04:12:16;1.82;;;1.20;;
14704;SDS011;7442;50.840;3.396;2023-10-13T04:14:48;1.67;;;1.32;;
14704;SDS011;7442;50.840;3.396;2023-10-13T04:17:35;1.95;;;1.47;;
14704;SDS011;7442;50.840;3.396;2023-10-13T04:20:14;2.22;;;1.47;;
14704;SDS011;7442;50.840;3.396;2023-10-13T04:22:46;1.72;;;1.45;;
14704;SDS011;7442;50.840;3.396;2023-10-13T04:25:21;1.30;;;1.20;;
14704;SDS011;7442;50.840;3.396;2023-10-13T04:28:07;2.40;;;1.67;;
14704;SDS011;7442;50.840;3.396;2023-10-13T04:30:49;2.40;;;1.35;;
14704;SDS011;7442;50.840;3.396;2023-10-13T04:33:31;1.77;;;1.35;;
14704;SDS011;7442;50.840;3.396;2023-10-13T04:36:15;2.30;;;1.42;;
14704;SDS011;7442;50.840;3.396;2023-10-13T04:38:51;2.25;;;1.70;;
14704;SDS011;7442;50.840;3.396;2023-10-13T04:41:26;1.57;;;1.47;;
14704;SDS011;7442;50.840;3.396;2023-10-13T04:44:13;1.35;;;1.25;;
14704;SDS011;7442;50.840;3.396;2023-10-13T04:47:03;1.85;;;1.30;;
14704;SDS011;7442;50.840;3.396;2023-10-13T04:49:37;1.70;;;1.30;;
14704;SDS011;7442;50.840;3.396;2023-10-13T04:52:18;2.37;;;1.42;;
14704;SDS011;7442;50.840;3.396;2023-10-13T04:55:06;1.57;;;1.47;;
14704;SDS011;7442;50.840;3.396;2023-10-13T04:57:47;1.40;;;1.27;;
14704;SDS011;7442;50.840;3.396;2023-10-13T05:00:18;2.55;;;1.67;;
14704;SDS011;7442;50.840;3.396;2023-10-13T05:02:50;1.30;;;1.10;;
14704;SDS011;7442;50.840;3.396;2023-10-13T05:05:31;1.57;;;1.35;;
14704;SDS011;7442;50.840;3.396;2023-10-13T05:08:02;2.10;;;1.47;;
14704;SDS011;7442;50.840;3.396;2023-10-13T05:10:50;2.27;;;1.52;;
14704;SDS011;7442;50.840;3.396;2023-10-13T05:13:38;3.47;;;1.50;;
14704;SDS011;7442;50.840;3.396;2023-10-13T05:16:26;3.22;;;1.20;;
14704;SDS011;7442;50.840;3.396;2023-10-13T05:19:14;1.30;;;1.20;;
14704;SDS011;7442;50.840;3.396;2023-10-13T05:22:02;3.27;;;1.62;;
14704;SDS011;7442;50.840;3.396;2023-10-13T05:24:50;2.55;;;1.30;;
14704;SDS011;7442;50.840;3.396;2023-10-13T05:27:38;3.83;;;1.57;;
14704;SDS011;7442;50.840;3.396;2023-10-13T05:30:26;1.77;;;1.50;;
14704;SDS011;7442;50.840;3.396;2023-10-13T05:33:14;1.60;;;1.50;;
14704;SDS011;7442;50.840;3.396;2023-10-13T05:36:02;1.95;;;1.47;;
14704;SDS011;7442;50.840;3.396;2023-10-13T05:38:53;3.25;;;2.10;;
14704;SDS011;7442;50.840;3.396;2023-10-13T05:41:41;2.75;;;1.50;;
14704;SDS011;7442;50.840;3.396;2023-10-13T05:44:29;3.65;;;1.80;;
14704;SDS011;7442;50.840;3.396;2023-10-13T05:47:04;3.05;;;2.00;;
14704;SDS011;7442;50.840;3.396;2023-10-13T05:49:51;2.92;;;1.35;;
14704;SDS011;7442;50.840;3.396;2023-10-13T05:52:23;2.10;;;1.70;;
14704;SDS011;7442;50.840;3.396;2023-10-13T05:55:01;3.20;;;1.80;;
14704;SDS011;7442;50.840;3.396;2023-10-13T05:57:49;2.30;;;1.82;;
14704;SDS011;7442;50.840;3.396;2023-10-13T06:00:41;2.98;;;1.65;;
14704;SDS011;7442;50.840;3.396;2023-10-13T06:03:29;2.87;;;2.02;;
14704;SDS011;7442;50.840;3.396;2023-10-13T06:06:17;2.90;;;1.90;;
14704;SDS011;7442;50.840;3.396;2023-10-13T06:09:06;3.50;;;2.10;;
14704;SDS011;7442;50.840;3.396;2023-10-13T06:11:54;4.60;;;2.27;;
14704;SDS011;7442;50.840;3.396;2023-10-13T06:14:45;3.52;;;2.02;;
14704;SDS011;7442;50.840;3.396;2023-10-13T06:17:34;2.70;;;1.77;;
14704;SDS011;7442;50.840;3.396;2023-10-13T06:20:21;3.77;;;2.08;;
14704;SDS011;7442;50.840;3.396;2023-10-13T06:23:09;3.27;;;1.75;;
14704;SDS011;7442;50.840;3.396;2023-10-13T06:25:57;3.62;;;1.92;;
14704;SDS011;7442;50.840;3.396;2023-10-13T06:28:46;3.27;;;1.90;;
14704;SDS011;7442;50.840;3.396;2023-10-13T06:31:17;5.42;;;1.98;;
14704;SDS011;7442;50.840;3.396;2023-10-13T06:33:50;4.83;;;1.87;;
14704;SDS011;7442;50.840;3.396;2023-10-13T06:36:22;4.30;;;1.72;;
14704;SDS011;7442;50.840;3.396;2023-10-13T06:38:52;4.08;;;2.25;;
14704;SDS011;7442;50.840;3.396;2023-10-13T06:41:26;2.20;;;1.67;;
14704;SDS011;7442;50.840;3.396;2023-10-13T06:43:59;6.03;;;2.33;;
14704;SDS011;7442;50.840;3.396;2023-10-13T06:46:29;5.37;;;2.50;;
14704;SDS011;7442;50.840;3.396;2023-10-13T06:49:01;3.98;;;2.00;;
14704;SDS011;7442;50.840;3.396;2023-10-13T06:51:31;4.87;;;1.98;;
14704;SDS011;7442;50.840;3.396;2023-10-13T06:54:02;5.97;;;2.30;;
14704;SDS011;7442;50.840;3.396;2023-10-13T06:56:35;4.20;;;2.00;;
14704;SDS011;7442;50.840;3.396;2023-10-13T06:59:07;3.05;;;1.82;;
14704;SDS011;7442;50.840;3.396;2023-10-13T07:01:37;3.02;;;1.82;;
14704;SDS011;7442;50.840;3.396;2023-10-13T07:04:07;4.55;;;1.98;;
14704;SDS011;7442;50.840;3.396;2023-10-13T07:06:44;6.58;;;2.20;;
14704;SDS011;7442;50.840;3.396;2023-10-13T07:09:18;3.75;;;2.25;;
14704;SDS011;7442;50.840;3.396;2023-10-13T07:12:05;4.90;;;2.12;;
14704;SDS011;7442;50.840;3.396;2023-10-13T07:14:37;4.55;;;2.20;;
14704;SDS011;7442;50.840;3.396;2023-10-13T07:17:08;5.17;;;2.10;;
14704;SDS011;7442;50.840;3.396;2023-10-13T07:19:38;5.78;;;2.10;;
14704;SDS011;7442;50.840;3.396;2023-10-13T07:22:10;3.70;;;2.33;;
14704;SDS011;7442;50.840;3.396;2023-10-13T07:24:50;2.30;;;2.00;;
14704;SDS011;7442;50.840;3.396;2023-10-13T07:27:21;6.65;;;2.70;;
14704;SDS011;7442;50.840;3.396;2023-10-13T07:29:52;4.53;;;2.20;;
14704;SDS011;7442;50.840;3.396;2023-10-13T07:32:43;5.00;;;2.27;;
14704;SDS011;7442;50.840;3.396;2023-10-13T07:35:18;4.85;;;2.37;;
14704;SDS011;7442;50.840;3.396;2023-10-13T07:37:51;5.92;;;2.40;;
14704;SDS011;7442;50.840;3.396;2023-10-13T07:40:23;4.60;;;2.10;;
14704;SDS011;7442;50.840;3.396;2023-10-13T07:42:55;3.30;;;1.80;;
14704;SDS011;7442;50.840;3.396;2023-10-13T07:45:27;4.17;;;2.35;;
14704;SDS011;7442;50.840;3.396;2023-10-13T07:48:09;7.80;;;2.47;;
14704;SDS011;7442;50.840;3.396;2023-10-13T07:50:59;8.40;;;2.45;;
14704;SDS011;7442;50.840;3.396;2023-10-13T07:53:32;4.15;;;2.30;;
14704;SDS011;7442;50.840;3.396;2023-10-13T07:56:07;4.50;;;2.33;;
14704;SDS011;7442;50.840;3.396;2023-10-13T07:58:38;4.58;;;2.47;;
14704;SDS011;7442;50.840;3.396;2023-10-13T08:01:27;7.95;;;2.50;;
14704;SDS011;7442;50.840;3.396;2023-10-13T08:03:57;12.13;;;2.83;;
14704;SDS011;7442;50.840;3.396;2023-10-13T08:06:28;4.30;;;2.35;;
14704;SDS011;7442;50.840;3.396;2023-10-13T08:08:58;6.67;;;2.90;;
14704;SDS011;7442;50.840;3.396;2023-10-13T08:11:38;6.20;;;2.58;;
14704;SDS011;7442;50.840;3.396;2023-10-13T08:14:08;8.95;;;3.20;;
14704;SDS011;7442;50.840;3.396;2023-10-13T08:16:43;5.58;;;2.95;;
14704;SDS011;7442;50.840;3.396;2023-10-13T08:19:24;9.85;;;3.52;;
14704;SDS011;7442;50.840;3.396;2023-10-13T08:22:13;5.50;;;2.80;;
14704;SDS011;7442;50.840;3.396;2023-10-13T08:24:48;7.70;;;3.42;;
14704;SDS011;7442;50.840;3.396;2023-10-13T08:27:22;8.38;;;3.62;;
14704;SDS011;7442;50.840;3.396;2023-10-13T08:30:03;9.45;;;3.40;;
14704;SDS011;7442;50.840;3.396;2023-10-13T08:32:36;11.35;;;4.00;;
14704;SDS011;7442;50.840;3.396;2023-10-13T08:35:08;10.50;;;3.98;;
14704;SDS011;7442;50.840;3.396;2023-10-13T08:37:38;8.98;;;4.10;;
14704;SDS011;7442;50.840;3.396;2023-10-13T08:40:16;12.07;;;4.55;;
14704;SDS011;7442;50.840;3.396;2023-10-13T08:42:51;10.23;;;3.62;;
14704;SDS011;7442;50.840;3.396;2023-10-13T08:45:23;10.45;;;4.92;;
14704;SDS011;7442;50.840;3.396;2023-10-13T08:47:59;8.23;;;3.83;;
14704;SDS011;7442;50.840;3.396;2023-10-13T08:50:50;11.90;;;4.10;;
14704;SDS011;7442;50.840;3.396;2023-10-13T08:53:22;9.18;;;4.15;;
14704;SDS011;7442;50.840;3.396;2023-10-13T08:58:36;12.05;;;3.98;;
14704;SDS011;7442;50.840;3.396;2023-10-13T09:01:28;17.30;;;4.47;;
14704;SDS011;7442;50.840;3.396;2023-10-13T09:04:16;10.88;;;3.92;;
14704;SDS011;7442;50.840;3.396;2023-10-13T09:06:50;11.33;;;5.33;;
14704;SDS011;7442;50.840;3.396;2023-10-13T09:09:30;9.30;;;4.53;;
14704;SDS011;7442;50.840;3.396;2023-10-13T09:12:26;10.93;;;4.40;;
14704;SDS011;7442;50.840;3.396;2023-10-13T09:15:07;11.88;;;5.17;;
14704;SDS011;7442;50.840;3.396;2023-10-13T09:17:43;12.03;;;4.93;;
14704;SDS011;7442;50.840;3.396;2023-10-13T09:20:29;11.60;;;5.05;;
14704;SDS011;7442;50.840;3.396;2023-10-13T09:23:10;13.15;;;4.55;;
14704;SDS011;7442;50.840;3.396;2023-10-13T09:25:43;13.93;;;5.20;;
14704;SDS011;7442;50.840;3.396;2023-10-13T09:28:27;13.68;;;5.25;;
14704;SDS011;7442;50.840;3.396;2023-10-13T09:30:59;12.58;;;4.70;;
14704;SDS011;7442;50.840;3.396;2023-10-13T09:33:29;15.68;;;5.45;;
14704;SDS011;7442;50.840;3.396;2023-10-13T09:36:07;13.70;;;4.45;;
14704;SDS011;7442;50.840;3.396;2023-10-13T09:38:39;11.40;;;4.80;;
14704;SDS011;7442;50.840;3.396;2023-10-13T09:41:09;14.15;;;4.92;;
14704;SDS011;7442;50.840;3.396;2023-10-13T09:43:50;9.55;;;4.55;;
14704;SDS011;7442;50.840;3.396;2023-10-13T09:46:20;9.55;;;4.60;;
14704;SDS011;7442;50.840;3.396;2023-10-13T09:48:58;9.95;;;4.60;;
14704;SDS011;7442;50.840;3.396;2023-10-13T09:51:35;13.43;;;4.92;;
14704;SDS011;7442;50.840;3.396;2023-10-13T09:54:25;12.60;;;5.10;;
14704;SDS011;7442;50.840;3.396;2023-10-13T09:57:12;12.33;;;5.65;;
14704;SDS011;7442;50.840;3.396;2023-10-13T10:02:24;12.05;;;5.10;;
14704;SDS011;7442;50.840;3.396;2023-10-13T10:04:55;11.15;;;4.78;;
14704;SDS011;7442;50.840;3.396;2023-10-13T10:07:28;12.45;;;5.05;;
14704;SDS011;7442;50.840;3.396;2023-10-13T10:09:59;10.50;;;5.17;;
14704;SDS011;7442;50.840;3.396;2023-10-13T10:15:24;9.05;;;5.08;;
14704;SDS011;7442;50.840;3.396;2023-10-13T10:18:06;8.15;;;5.10;;
14704;SDS011;7442;50.840;3.396;2023-10-13T10:20:40;9.90;;;4.95;;
14704;SDS011;7442;50.840;3.396;2023-10-13T10:23:33;10.33;;;4.87;;
14704;SDS011;7442;50.840;3.396;2023-10-13T10:25:57;8.75;;;4.78;;
14704;SDS011;7442;50.840;3.396;2023-10-13T10:28:40;9.05;;;4.58;;
14704;SDS011;7442;50.840;3.396;2023-10-13T10:31:11;11.38;;;5.33;;
14704;SDS011;7442;50.840;3.396;2023-10-13T10:33:46;11.30;;;5.15;;
14704;SDS011;7442;50.840;3.396;2023-10-13T10:36:29;10.18;;;4.80;;
14704;SDS011;7442;50.840;3.396;2023-10-13T10:38:59;9.78;;;4.75;;
14704;SDS011;7442;50.840;3.396;2023-10-13T10:41:31;7.37;;;4.40;;
14704;SDS011;7442;50.840;3.396;2023-10-13T10:44:15;10.75;;;5.03;;
14704;SDS011;7442;50.840;3.396;2023-10-13T10:46:47;9.68;;;5.25;;
14704;SDS011;7442;50.840;3.396;2023-10-13T10:49:26;9.85;;;4.67;;
14704;SDS011;7442;50.840;3.396;2023-10-13T10:52:02;10.08;;;4.78;;
14704;SDS011;7442;50.840;3.396;2023-10-13T10:54:29;9.13;;;4.65;;
14704;SDS011;7442;50.840;3.396;2023-10-13T10:57:00;8.00;;;4.58;;
14704;SDS011;7442;50.840;3.396;2023-10-13T10:59:39;10.58;;;4.80;;
14704;SDS011;7442;50.840;3.396;2023-10-13T11:02:10;8.23;;;4.90;;
14704;SDS011;7442;50.840;3.396;2023-10-13T11:04:42;7.55;;;4.45;;
14704;SDS011;7442;50.840;3.396;2023-10-13T11:07:25;7.97;;;4.28;;
14704;SDS011;7442;50.840;3.396;2023-10-13T11:10:06;9.35;;;4.67;;
14704;SDS011;7442;50.840;3.396;2023-10-13T11:12:37;8.95;;;4.25;;
14704;SDS011;7442;50.840;3.396;2023-10-13T11:15:08;10.78;;;5.12;;
14704;SDS011;7442;50.840;3.396;2023-10-13T11:17:47;8.28;;;4.58;;
14704;SDS011;7442;50.840;3.396;2023-10-13T11:20:26;10.88;;;4.95;;
14704;SDS011;7442;50.840;3.396;2023-10-13T11:23:10;13.20;;;4.83;;
14704;SDS011;7442;50.840;3.396;2023-10-13T11:25:37;9.00;;;4.50;;
14704;SDS011;7442;50.840;3.396;2023-10-13T11:28:10;9.83;;;4.78;;
14704;SDS011;7442;50.840;3.396;2023-10-13T11:30:58;11.33;;;4.72;;
14704;SDS011;7442;50.840;3.396;2023-10-13T11:33:28;10.20;;;4.50;;
14704;SDS011;7442;50.840;3.396;2023-10-13T11:35:59;11.83;;;4.67;;
14704;SDS011;7442;50.840;3.396;2023-10-13T11:38:33;12.33;;;4.00;;
14704;SDS011;7442;50.840;3.396;2023-10-13T11:41:05;10.10;;;4.97;;
14704;SDS011;7442;50.840;3.396;2023-10-13T11:43:41;12.45;;;4.67;;
14704;SDS011;7442;50.840;3.396;2023-10-13T11:46:14;11.45;;;5.03;;
14704;SDS011;7442;50.840;3.396;2023-10-13T11:49:09;11.68;;;4.92;;
14704;SDS011;7442;50.840;3.396;2023-10-13T11:51:46;13.38;;;5.10;;
14704;SDS011;7442;50.840;3.396;2023-10-13T11:54:18;10.00;;;4.62;;
14704;SDS011;7442;50.840;3.396;2023-10-13T11:56:50;15.55;;;5.12;;
14704;SDS011;7442;50.840;3.396;2023-10-13T11:59:20;14.90;;;5.92;;
14704;SDS011;7442;50.840;3.396;2023-10-13T12:01:51;12.10;;;4.95;;
14704;SDS011;7442;50.840;3.396;2023-10-13T12:04:40;13.43;;;5.00;;
14704;SDS011;7442;50.840;3.396;2023-10-13T12:07:11;13.10;;;4.83;;
14704;SDS011;7442;50.840;3.396;2023-10-13T12:09:52;10.20;;;5.40;;
14704;SDS011;7442;50.840;3.396;2023-10-13T12:12:27;11.18;;;5.65;;
14704;SDS011;7442;50.840;3.396;2023-10-13T12:14:59;14.43;;;5.40;;
14704;SDS011;7442;50.840;3.396;2023-10-13T12:17:31;11.20;;;4.87;;
14704;SDS011;7442;50.840;3.396;2023-10-13T12:20:03;14.15;;;5.10;;
14704;SDS011;7442;50.840;3.396;2023-10-13T12:22:41;11.97;;;5.17;;
14704;SDS011;7442;50.840;3.396;2023-10-13T12:25:11;17.25;;;5.28;;
14704;SDS011;7442;50.840;3.396;2023-10-13T12:27:49;13.60;;;5.10;;
14704;SDS011;7442;50.840;3.396;2023-10-13T12:30:20;9.58;;;4.65;;
14704;SDS011;7442;50.840;3.396;2023-10-13T12:32:52;10.45;;;4.78;;
14704;SDS011;7442;50.840;3.396;2023-10-13T12:35:24;10.95;;;5.20;;
14704;SDS011;7442;50.840;3.396;2023-10-13T12:38:05;13.45;;;5.15;;
14704;SDS011;7442;50.840;3.396;2023-10-13T12:40:37;13.20;;;5.10;;
14704;SDS011;7442;50.840;3.396;2023-10-13T12:43:25;13.15;;;5.08;;
14704;SDS011;7442;50.840;3.396;2023-10-13T12:46:14;9.93;;;4.80;;
14704;SDS011;7442;50.840;3.396;2023-10-13T12:49:02;14.45;;;5.05;;
14704;SDS011;7442;50.840;3.396;2023-10-13T12:51:36;10.55;;;4.92;;
14704;SDS011;7442;50.840;3.396;2023-10-13T12:54:08;9.03;;;4.80;;
14704;SDS011;7442;50.840;3.396;2023-10-13T12:56:46;9.58;;;4.50;;
14704;SDS011;7442;50.840;3.396;2023-10-13T12:59:16;14.78;;;5.40;;
14704;SDS011;7442;50.840;3.396;2023-10-13T13:01:46;9.78;;;4.70;;
14704;SDS011;7442;50.840;3.396;2023-10-13T13:04:16;10.48;;;4.95;;
14704;SDS011;7442;50.840;3.396;2023-10-13T13:06:49;9.63;;;4.65;;
14704;SDS011;7442;50.840;3.396;2023-10-13T13:09:21;7.67;;;4.40;;
14704;SDS011;7442;50.840;3.396;2023-10-13T13:11:54;8.38;;;4.83;;
14704;SDS011;7442;50.840;3.396;2023-10-13T13:14:25;6.83;;;4.42;;
14704;SDS011;7442;50.840;3.396;2023-10-13T13:17:00;9.60;;;4.62;;
14704;SDS011;7442;50.840;3.396;2023-10-13T13:19:35;9.08;;;4.70;;
14704;SDS011;7442;50.840;3.396;2023-10-13T13:22:08;6.62;;;4.72;;
14704;SDS011;7442;50.840;3.396;2023-10-13T13:24:41;6.30;;;4.35;;
14704;SDS011;7442;50.840;3.396;2023-10-13T13:27:17;7.28;;;4.83;;
14704;SDS011;7442;50.840;3.396;2023-10-13T13:29:50;7.33;;;4.83;;
14704;SDS011;7442;50.840;3.396;2023-10-13T13:32:20;8.98;;;4.75;;
14704;SDS011;7442;50.840;3.396;2023-10-13T13:34:53;10.63;;;4.53;;
14704;SDS011;7442;50.840;3.396;2023-10-13T13:37:25;7.28;;;4.22;;
14704;SDS011;7442;50.840;3.396;2023-10-13T13:39:55;8.63;;;4.37;;
14704;SDS011;7442;50.840;3.396;2023-10-13T13:42:27;6.85;;;4.10;;
14704;SDS011;7442;50.840;3.396;2023-10-13T13:44:59;10.95;;;5.00;;
14704;SDS011;7442;50.840;3.396;2023-10-13T13:47:29;7.15;;;4.00;;
14704;SDS011;7442;50.840;3.396;2023-10-13T13:50:01;7.90;;;4.42;;
14704;SDS011;7442;50.840;3.396;2023-10-13T13:52:33;8.35;;;4.40;;
14704;SDS011;7442;50.840;3.396;2023-10-13T13:55:05;8.43;;;4.40;;
14704;SDS011;7442;50.840;3.396;2023-10-13T13:57:35;7.25;;;4.37;;
14704;SDS011;7442;50.840;3.396;2023-10-13T14:00:06;9.10;;;4.42;;
14704;SDS011;7442;50.840;3.396;2023-10-13T14:02:37;7.15;;;3.85;;
14704;SDS011;7442;50.840;3.396;2023-10-13T14:05:07;8.45;;;4.20;;
14704;SDS011;7442;50.840;3.396;2023-10-13T14:07:39;10.03;;;4.47;;
14704;SDS011;7442;50.840;3.396;2023-10-13T14:10:09;9.10;;;4.33;;
14704;SDS011;7442;50.840;3.396;2023-10-13T14:12:40;8.23;;;4.28;;
14704;SDS011;7442;50.840;3.396;2023-10-13T14:15:10;6.25;;;4.20;;
14704;SDS011;7442;50.840;3.396;2023-10-13T14:17:51;9.40;;;4.70;;
14704;SDS011;7442;50.840;3.396;2023-10-13T14:20:21;7.87;;;4.10;;
14704;SDS011;7442;50.840;3.396;2023-10-13T14:22:53;8.23;;;4.33;;
14704;SDS011;7442;50.840;3.396;2023-10-13T14:25:23;8.48;;;4.30;;
14704;SDS011;7442;50.840;3.396;2023-10-13T14:27:54;7.95;;;4.50;;
14704;SDS011;7442;50.840;3.396;2023-10-13T14:30:29;7.55;;;4.50;;
14704;SDS011;7442;50.840;3.396;2023-10-13T14:32:59;6.72;;;4.37;;
14704;SDS011;7442;50.840;3.396;2023-10-13T14:35:29;7.35;;;4.25;;
14704;SDS011;7442;50.840;3.396;2023-10-13T14:37:59;6.97;;;4.15;;
14704;SDS011;7442;50.840;3.396;2023-10-13T14:40:31;6.15;;;4.15;;
14704;SDS011;7442;50.840;3.396;2023-10-13T14:43:01;6.70;;;4.55;;
14704;SDS011;7442;50.840;3.396;2023-10-13T14:45:34;8.60;;;4.17;;
14704;SDS011;7442;50.840;3.396;2023-10-13T14:48:07;6.60;;;4.30;;
14704;SDS011;7442;50.840;3.396;2023-10-13T14:50:39;6.80;;;4.28;;
14704;SDS011;7442;50.840;3.396;2023-10-13T14:53:11;7.60;;;4.17;;
14704;SDS011;7442;50.840;3.396;2023-10-13T14:55:43;5.50;;;4.00;;
14704;SDS011;7442;50.840;3.396;2023-10-13T14:58:13;6.78;;;4.35;;
14704;SDS011;7442;50.840;3.396;2023-10-13T15:00:44;6.45;;;4.35;;
14704;SDS011;7442;50.840;3.396;2023-10-13T15:03:14;6.55;;;4.05;;
14704;SDS011;7442;50.840;3.396;2023-10-13T15:05:46;8.40;;;4.20;;
14704;SDS011;7442;50.840;3.396;2023-10-13T15:08:16;7.72;;;4.12;;
14704;SDS011;7442;50.840;3.396;2023-10-13T15:10:48;6.87;;;3.77;;
14704;SDS011;7442;50.840;3.396;2023-10-13T15:13:18;6.62;;;3.98;;
14704;SDS011;7442;50.840;3.396;2023-10-13T15:15:49;7.75;;;4.30;;
14704;SDS011;7442;50.840;3.396;2023-10-13T15:18:19;7.30;;;3.70;;
14704;SDS011;7442;50.840;3.396;2023-10-13T15:20:51;7.90;;;4.05;;
14704;SDS011;7442;50.840;3.396;2023-10-13T15:23:21;5.37;;;4.22;;
14704;SDS011;7442;50.840;3.396;2023-10-13T15:25:52;5.67;;;4.03;;
14704;SDS011;7442;50.840;3.396;2023-10-13T15:28:22;6.47;;;3.52;;
14704;SDS011;7442;50.840;3.396;2023-10-13T15:30:57;6.17;;;4.08;;
14704;SDS011;7442;50.840;3.396;2023-10-13T15:33:33;6.35;;;4.10;;
14704;SDS011;7442;50.840;3.396;2023-10-13T15:35:59;6.12;;;3.92;;
14704;SDS011;7442;50.840;3.396;2023-10-13T15:38:29;9.00;;;4.00;;
14704;SDS011;7442;50.840;3.396;2023-10-13T15:40:59;6.62;;;3.37;;
14704;SDS011;7442;50.840;3.396;2023-10-13T15:43:31;9.05;;;4.30;;
14704;SDS011;7442;50.840;3.396;2023-10-13T15:46:01;8.93;;;3.80;;
14704;SDS011;7442;50.840;3.396;2023-10-13T15:48:33;6.33;;;3.75;;
14704;SDS011;7442;50.840;3.396;2023-10-13T15:51:04;6.22;;;4.10;;
14704;SDS011;7442;50.840;3.396;2023-10-13T15:53:37;5.67;;;3.80;;
14704;SDS011;7442;50.840;3.396;2023-10-13T15:56:08;5.87;;;3.70;;
14704;SDS011;7442;50.840;3.396;2023-10-13T15:58:48;8.48;;;4.42;;
14704;SDS011;7442;50.840;3.396;2023-10-13T16:01:19;8.68;;;3.85;;
14704;SDS011;7442;50.840;3.396;2023-10-13T16:03:50;12.10;;;3.92;;